Time;durP1;ratioP1;P1;durP2;ratioP2;P2;SDS_P1;SDS_P2;PMS_P1;PMS_P2;Temp;Humidity;BMP_temperature;BMP_pressure;BME280_temperature;BME280_humidity;BME280_pressure;Samples;Min_cycle;Max_cycle;Signal;HPM_P1;HPM_P2
2023/09/17 00:01:10;;;;;;;7.03;4.40;;;;;;;18.94;80.51;101511.25;5054104;27;99354;-27
2023/09/17 00:03:36;;;;;;;5.93;4.15;;;;;;;18.93;80.79;101513.13;5057776;27;99220;-27
2023/09/17 00:06:02;;;;;;;9.20;4.63;;;;;;;18.93;80.24;101509.50;5058464;27;96893;-29
2023/09/17 00:08:27;;;;;;;6.57;4.32;;;;;;;18.92;80.32;101508.63;5058172;27;96860;-27
2023/09/17 00:10:52;;;;;;;7.30;4.63;;;;;;;18.87;80.41;101505.41;5058061;27;98073;-28
2023/09/17 00:13:19;;;;;;;8.85;4.85;;;;;;;18.81;80.50;101498.59;5057988;27;97267;-27
2023/09/17 00:15:45;;;;;;;12.02;4.93;;;;;;;18.83;79.78;101499.31;5058139;27;96708;-27
2023/09/17 00:18:11;;;;;;;7.25;4.18;;;;;;;18.80;80.25;101502.31;5039997;27;96744;-27
2023/09/17 00:20:36;;;;;;;9.32;4.47;;;;;;;18.75;80.12;101489.97;5057980;27;97995;-27
2023/09/17 00:23:02;;;;;;;11.55;5.32;;;;;;;18.77;80.00;101493.50;5057836;27;97392;-27
2023/09/17 00:25:28;;;;;;;7.47;4.88;;;;;;;18.73;80.01;101484.59;5057506;27;96714;-28
2023/09/17 00:27:53;;;;;;;7.10;4.50;;;;;;;18.72;79.63;101487.50;5057780;27;96816;-28
2023/09/17 00:30:19;;;;;;;8.55;4.93;;;;;;;18.71;79.12;101480.25;5057272;27;98083;-28
2023/09/17 00:32:45;;;;;;;8.90;4.97;;;;;;;18.70;79.93;101484.00;5057681;27;97757;-28
2023/09/17 00:35:13;;;;;;;7.15;4.95;;;;;;;18.65;78.49;101479.78;5057871;27;96487;-27
2023/09/17 00:37:40;;;;;;;8.30;5.05;;;;;;;18.59;78.73;101480.31;5039260;27;96880;-27
2023/09/17 00:40:09;;;;;;;13.27;5.47;;;;;;;18.53;78.73;101478.09;5039062;27;100928;-27
2023/09/17 00:42:35;;;;;;;9.85;4.90;;;;;;;18.55;78.16;101486.19;5057715;27;99679;-27
2023/09/17 00:45:02;;;;;;;7.75;4.65;;;;;;;18.49;78.19;101479.34;5038452;27;96756;-27
2023/09/17 00:47:28;;;;;;;9.50;4.93;;;;;;;18.50;77.90;101482.97;5057588;27;96807;-27
2023/09/17 00:49:53;;;;;;;7.88;4.72;;;;;;;18.48;78.03;101472.13;5056866;27;97460;-27
2023/09/17 00:52:20;;;;;;;9.27;5.38;;;;;;;18.47;77.83;101470.34;5057207;27;99386;-27
2023/09/17 00:54:48;;;;;;;7.57;4.65;;;;;;;18.42;77.07;101472.63;5039251;27;96604;-27
2023/09/17 00:57:17;;;;;;;7.35;4.70;;;;;;;18.43;77.66;101471.66;5057560;27;96622;-28
2023/09/17 00:59:43;;;;;;;11.70;5.40;;;;;;;18.39;77.23;101456.44;5038654;27;100929;-27
2023/09/17 01:02:09;;;;;;;6.93;4.32;;;;;;;18.34;76.70;101459.56;5038756;27;98934;-28
2023/09/17 01:04:36;;;;;;;7.45;4.82;;;;;;;18.34;76.41;101461.44;5057055;27;96506;-27
2023/09/17 01:07:02;;;;;;;7.50;4.05;;;;;;;18.29;76.49;101461.84;5039366;27;96813;-29
2023/09/17 01:09:29;;;;;;;8.85;4.68;;;;;;;18.29;76.88;101467.31;5038714;27;98952;-28
2023/09/17 01:11:56;;;;;;;6.10;4.47;;;;;;;18.29;76.72;101461.84;5038028;27;99852;-28
2023/09/17 01:14:21;;;;;;;7.13;4.63;;;;;;;18.32;77.15;101463.44;5038505;27;96702;-27
2023/09/17 01:16:47;;;;;;;6.15;4.30;;;;;;;18.33;76.45;101455.09;5057159;27;96808;-28
2023/09/17 01:19:26;;;;;;;7.65;4.78;;;;;;;18.31;76.69;101454.34;5056516;27;99209;-29
2023/09/17 01:22:01;;;;;;;6.88;4.15;;;;;;;18.25;76.34;101436.53;5038471;27;100903;-27
2023/09/17 01:24:40;;;;;;;7.05;4.05;;;;;;;18.23;75.73;101435.81;5038749;27;96577;-28
2023/09/17 01:27:06;;;;;;;6.57;4.32;;;;;;;18.20;75.62;101437.94;5038870;27;96685;-28
2023/09/17 01:29:37;;;;;;;7.25;4.75;;;;;;;18.18;76.11;101432.56;5038294;27;100783;-28
2023/09/17 01:32:04;;;;;;;7.25;4.72;;;;;;;18.18;75.72;101432.56;5038673;27;100742;-28
2023/09/17 01:34:31;;;;;;;6.85;4.38;;;;;;;18.10;76.00;101418.66;5038584;27;96745;-28
2023/09/17 01:36:59;;;;;;;6.70;4.85;;;;;;;18.12;75.83;101418.53;5056711;27;96810;-27
2023/09/17 01:39:27;;;;;;;6.85;4.78;;;;;;;18.07;75.36;101412.53;5037743;27;100569;-27
2023/09/17 01:41:54;;;;;;;6.88;4.07;;;;;;;18.10;75.32;101421.38;5038078;27;101065;-27
2023/09/17 01:44:21;;;;;;;6.57;4.53;;;;;;;18.11;75.44;101414.03;5037993;27;96789;-27
2023/09/17 01:46:48;;;;;;;8.32;5.07;;;;;;;18.12;75.50;101413.91;5056708;27;96833;-27
2023/09/17 01:49:14;;;;;;;6.93;4.35;;;;;;;18.17;75.52;101424.47;5038142;27;100968;-28
2023/09/17 01:51:40;;;;;;;6.05;4.32;;;;;;;18.16;76.00;101418.13;5037764;27;100675;-27
2023/09/17 01:54:06;;;;;;;8.48;4.47;;;;;;;18.17;75.08;101422.59;5038334;27;96596;-27
2023/09/17 01:56:34;;;;;;;6.32;4.05;;;;;;;18.10;75.23;101418.66;5038686;27;96903;-27
2023/09/17 01:59:00;;;;;;;5.68;4.22;;;;;;;18.12;74.93;101427.63;5037793;27;101048;-28
2023/09/17 02:01:25;;;;;;;9.02;5.00;;;;;;;18.13;74.73;101417.50;5038050;27;100847;-27
2023/09/17 02:03:51;;;;;;;8.60;4.72;;;;;;;18.11;75.16;101431.34;5055852;27;96753;-27
2023/09/17 02:06:16;;;;;;;6.50;4.70;;;;;;;18.07;74.25;101426.25;5056423;27;96852;-27
2023/09/17 02:08:41;;;;;;;8.65;4.18;;;;;;;18.05;74.82;101423.66;5056099;27;97917;-27
2023/09/17 02:11:07;;;;;;;7.03;4.40;;;;;;;17.97;74.77;101420.66;5056245;27;97821;-27
2023/09/17 02:13:32;;;;;;;8.48;5.18;;;;;;;17.97;74.37;101428.88;5056111;27;96700;-27
2023/09/17 02:15:58;;;;;;;7.45;4.40;;;;;;;17.99;74.92;101424.16;5056083;27;96954;-27
2023/09/17 02:18:23;;;;;;;6.75;4.57;;;;;;;18.01;74.71;101425.75;5055740;27;99421;-28
2023/09/17 02:20:48;;;;;;;7.80;4.75;;;;;;;18.04;75.09;101433.75;5056144;27;97798;-28
2023/09/17 02:23:14;;;;;;;6.50;4.88;;;;;;;17.99;74.91;101416.78;5056211;27;96575;-28
2023/09/17 02:25:39;;;;;;;6.65;4.40;;;;;;;18.00;74.63;101425.91;5055780;27;96826;-27
2023/09/17 02:28:04;;;;;;;7.93;5.00;;;;;;;18.00;74.44;101420.44;5036979;27;99289;-28
2023/09/17 02:30:31;;;;;;;6.50;4.30;;;;;;;18.03;75.00;101422.91;5055598;27;97462;-27
2023/09/17 02:32:56;;;;;;;6.75;4.10;;;;;;;18.06;74.53;101422.63;5056075;27;96530;-27
2023/09/17 02:35:21;;;;;;;10.20;4.50;;;;;;;18.03;74.50;101418.28;5055870;27;96802;-27
2023/09/17 02:37:47;;;;;;;8.57;4.45;;;;;;;18.02;74.19;101415.69;5055618;27;97898;-27
2023/09/17 02:40:12;;;;;;;8.80;4.45;;;;;;;17.99;74.50;101416.78;5055818;27;97151;-27
2023/09/17 02:42:38;;;;;;;7.10;4.28;;;;;;;17.97;74.09;101402.38;5056103;27;96517;-27
2023/09/17 02:45:05;;;;;;;6.90;4.38;;;;;;;17.96;73.99;101405.22;5056183;27;96865;-27
2023/09/17 02:47:33;;;;;;;7.43;4.78;;;;;;;17.92;73.80;101403.72;5055412;27;98050;-27
2023/09/17 02:49:59;;;;;;;6.43;4.22;;;;;;;17.92;74.09;101409.22;5055256;27;97890;-28
2023/09/17 02:52:24;;;;;;;8.90;4.65;;;;;;;17.90;73.62;101409.38;5036977;27;96625;-28
2023/09/17 02:54:49;;;;;;;7.55;5.20;;;;;;;17.88;74.25;101411.34;5055930;27;96781;-27
2023/09/17 02:57:15;;;;;;;6.30;3.90;;;;;;;17.88;74.11;101402.28;5055370;27;98086;-27
2023/09/17 02:59:40;;;;;;;9.15;4.25;;;;;;;17.90;73.47;101405.72;5055196;27;99247;-27
2023/09/17 03:02:05;;;;;;;7.03;4.65;;;;;;;17.84;73.73;101401.63;5055536;27;96508;-27
2023/09/17 03:04:31;;;;;;;8.00;4.43;;;;;;;17.81;74.15;101400.03;5055594;27;96961;-29
2023/09/17 03:06:57;;;;;;;9.43;5.22;;;;;;;17.80;73.52;101401.03;5055221;27;98024;-27
2023/09/17 03:09:24;;;;;;;8.30;4.88;;;;;;;17.79;73.87;101399.25;5055705;27;97787;-27
2023/09/17 03:11:50;;;;;;;8.60;4.57;;;;;;;17.87;73.82;101404.13;5037093;27;96685;-28
2023/09/17 03:14:16;;;;;;;7.22;4.63;;;;;;;17.84;73.78;101401.63;5055591;27;96774;-27
2023/09/17 03:16:41;;;;;;;11.30;4.78;;;;;;;17.82;73.29;101399.00;5054578;27;97820;-27
2023/09/17 03:19:06;;;;;;;7.32;4.70;;;;;;;17.81;73.18;101400.03;5054588;27;99346;-27
2023/09/17 03:21:34;;;;;;;5.72;3.70;;;;;;;17.85;73.59;101399.75;5055252;27;96664;-27
2023/09/17 03:23:59;;;;;;;7.95;4.85;;;;;;;17.86;73.70;101390.56;5055271;27;96819;-27
2023/09/17 03:26:24;;;;;;;7.47;3.97;;;;;;;17.80;73.25;101381.84;5055377;27;97302;-28
2023/09/17 03:28:50;;;;;;;5.95;4.18;;;;;;;17.80;73.05;101398.31;5054676;27;97749;-27
2023/09/17 03:31:15;;;;;;;8.30;4.65;;;;;;;17.81;73.71;101400.03;5055015;27;96530;-27
2023/09/17 03:33:40;;;;;;;8.23;4.60;;;;;;;17.79;72.99;101395.66;5055672;27;96764;-27
2023/09/17 03:36:06;;;;;;;9.00;3.85;;;;;;;17.76;73.39;101391.28;5054806;27;97583;-27
2023/09/17 03:38:33;;;;;;;7.35;4.97;;;;;;;17.75;73.09;101391.41;5054632;27;99101;-27
2023/09/17 03:41:00;;;;;;;6.72;4.78;;;;;;;17.70;73.46;101380.81;5054520;27;96570;-27
2023/09/17 03:43:27;;;;;;;7.65;4.63;;;;;;;17.72;73.31;101395.28;5055052;27;96748;-27
2023/09/17 03:45:52;;;;;;;8.02;4.38;;;;;;;17.64;73.93;101381.34;5054095;27;99442;-27
2023/09/17 03:48:18;;;;;;;7.38;4.53;;;;;;;17.69;73.84;101392.81;5054481;27;97494;-28
2023/09/17 03:50:44;;;;;;;7.68;5.07;;;;;;;17.63;73.54;101388.69;5055249;27;96594;-27
2023/09/17 03:53:09;;;;;;;8.25;4.68;;;;;;;17.67;74.12;101393.94;5055139;27;96758;-28
2023/09/17 03:55:35;;;;;;;9.80;5.03;;;;;;;17.62;73.63;101394.31;5054546;27;98470;-27
2023/09/17 03:58:01;;;;;;;8.25;4.70;;;;;;;17.60;73.63;101397.16;5054670;27;99253;-27
2023/09/17 04:00:27;;;;;;;8.45;4.80;;;;;;;17.60;73.78;101401.78;5054766;27;96542;-27
2023/09/17 04:02:53;;;;;;;10.10;5.47;;;;;;;17.55;73.98;101398.56;5036022;27;96788;-27
2023/09/17 04:05:21;;;;;;;7.50;4.85;;;;;;;17.53;74.29;101392.31;5053919;27;99201;-27
2023/09/17 04:07:47;;;;;;;6.75;4.63;;;;;;;17.59;74.17;101402.75;5054301;27;97249;-27
2023/09/17 04:10:14;;;;;;;9.38;4.45;;;;;;;17.55;74.63;101398.56;5054488;27;96679;-28
2023/09/17 04:12:40;;;;;;;6.70;4.75;;;;;;;17.52;74.64;101396.03;5036473;27;96852;-27
2023/09/17 04:15:12;;;;;;;8.43;4.68;;;;;;;17.50;74.30;101392.59;5035943;27;101090;-27
2023/09/17 04:17:38;;;;;;;;;;;;;;;17.52;75.33;101399.69;5036193;27;101414;-28
2023/09/17 04:20:09;;;;;;;7.68;4.07;;;;;;;17.49;74.71;101394.44;5054405;27;96582;-27
2023/09/17 04:22:35;;;;;;;8.98;5.00;;;;;;;17.54;74.14;101394.06;5036706;27;96751;-27
2023/09/17 04:25:00;;;;;;;6.00;4.10;;;;;;;17.47;74.81;101395.56;5054009;27;99539;-27
2023/09/17 04:27:26;;;;;;;7.28;4.50;;;;;;;17.47;75.12;101390.97;5054555;27;97137;-27
2023/09/17 04:29:52;;;;;;;9.80;5.18;;;;;;;17.56;75.00;101397.53;5035296;27;96641;-27
2023/09/17 04:32:18;;;;;;;8.52;5.18;;;;;;;17.53;75.23;101397.81;5054355;27;96744;-28
2023/09/17 04:34:43;;;;;;;7.57;4.82;;;;;;;17.48;75.29;101394.56;5035721;27;101101;-28
2023/09/17 04:37:10;;;;;;;7.55;4.47;;;;;;;17.48;75.61;101394.56;5054051;27;97280;-27
2023/09/17 04:39:35;;;;;;;7.55;4.47;;;;;;;17.50;75.57;101398.94;5035793;27;96701;-27
2023/09/17 04:42:01;;;;;;;8.00;4.57;;;;;;;17.50;76.04;101387.09;5054350;27;96806;-28
2023/09/17 04:44:28;;;;;;;7.50;4.60;;;;;;;17.51;76.28;101392.44;5053310;27;98002;-27
2023/09/17 04:46:53;;;;;;;8.88;4.45;;;;;;;17.49;75.54;101388.94;5054341;27;97869;-27
2023/09/17 04:49:19;;;;;;;7.30;5.00;;;;;;;17.52;75.13;101387.81;5058070;27;96478;-27
2023/09/17 04:51:44;;;;;;;7.43;4.65;;;;;;;17.50;76.10;101392.59;5057667;27;96796;-27
2023/09/17 04:54:10;;;;;;;6.18;4.25;;;;;;;17.47;75.58;101388.22;5056567;27;99360;-28
2023/09/17 04:56:37;;;;;;;9.75;4.63;;;;;;;17.52;76.00;101393.31;5057046;27;99155;-27
2023/09/17 04:59:03;;;;;;;8.82;5.00;;;;;;;17.51;75.81;101383.34;5057373;27;96691;-27
2023/09/17 05:01:29;;;;;;;6.68;4.95;;;;;;;17.49;75.58;101382.59;5039284;27;96646;-27
2023/09/17 05:03:54;;;;;;;10.00;4.90;;;;;;;17.46;76.21;101377.38;5038505;27;101110;-28
2023/09/17 05:06:20;;;;;;;8.10;4.13;;;;;;;17.43;76.23;101384.00;5057161;27;97774;-27
2023/09/17 05:08:45;;;;;;;8.10;4.82;;;;;;;17.41;75.85;101389.59;5057458;27;96586;-27
2023/09/17 05:11:11;;;;;;;8.15;5.22;;;;;;;17.39;76.27;101380.63;5057965;27;96844;-28
2023/09/17 05:13:36;;;;;;;10.00;5.05;;;;;;;17.41;75.58;101392.31;5056963;27;98165;-28
2023/09/17 05:16:03;;;;;;;7.43;4.70;;;;;;;17.31;76.54;101382.25;5056864;27;99616;-27
2023/09/17 05:18:28;;;;;;;8.52;4.93;;;;;;;17.38;76.67;101394.47;5038229;27;96673;-27
2023/09/17 05:20:54;;;;;;;10.40;4.43;;;;;;;17.36;76.56;101386.34;5057144;27;96836;-27
2023/09/17 05:23:22;;;;;;;8.35;4.90;;;;;;;17.37;76.55;101379.00;5056763;27;99260;-27
2023/09/17 05:25:48;;;;;;;7.97;4.65;;;;;;;17.32;75.88;101376.63;5038324;27;100909;-27
2023/09/17 05:28:14;;;;;;;8.07;4.72;;;;;;;17.33;75.95;101383.00;5056919;27;96634;-27
2023/09/17 05:30:39;;;;;;;7.65;4.03;;;;;;;17.28;76.58;101379.75;5057414;27;96802;-28
2023/09/17 05:33:05;;;;;;;10.43;4.53;;;;;;;17.29;76.06;101385.13;5056625;27;98869;-27
2023/09/17 05:35:31;;;;;;;6.70;4.57;;;;;;;17.32;76.23;101387.59;5057626;27;97457;-27
2023/09/17 05:37:56;;;;;;;8.45;4.53;;;;;;;17.30;75.84;101380.50;5038566;27;96709;-28
2023/09/17 05:40:22;;;;;;;7.50;4.07;;;;;;;17.28;75.85;101377.91;5056958;27;96837;-27
2023/09/17 05:42:47;;;;;;;5.47;4.00;;;;;;;17.28;76.00;101372.44;5056541;27;97378;-27
2023/09/17 05:45:12;;;;;;;9.10;4.97;;;;;;;17.27;75.21;101375.28;5055872;27;97353;-28
2023/09/17 05:47:40;;;;;;;7.43;4.47;;;;;;;17.28;75.71;101383.38;5056547;27;96490;-27
2023/09/17 05:50:06;;;;;;;8.07;4.38;;;;;;;17.25;75.63;101378.13;5056513;27;96927;-27
2023/09/17 05:52:31;;;;;;;7.53;4.65;;;;;;;17.27;75.91;101386.25;5037990;27;102703;-27
2023/09/17 05:54:57;;;;;;;8.00;5.05;;;;;;;17.22;75.47;101369.31;5056146;27;99597;-27
2023/09/17 05:57:22;;;;;;;8.10;4.50;;;;;;;17.22;75.77;101377.53;5056335;27;96654;-27
2023/09/17 05:59:47;;;;;;;9.48;4.65;;;;;;;17.22;75.99;101381.13;5055770;27;96794;-27
2023/09/17 06:02:13;;;;;;;8.73;4.43;;;;;;;17.23;75.42;101380.13;5056375;27;97876;-27
2023/09/17 06:04:38;;;;;;;8.60;4.63;;;;;;;17.19;76.03;101384.13;5055899;27;99134;-27
2023/09/17 06:07:03;;;;;;;6.28;4.05;;;;;;;17.18;75.97;101371.41;5056074;27;96593;-28
2023/09/17 06:09:30;;;;;;;9.73;4.13;;;;;;;17.23;75.93;101390.22;5056595;27;96759;-27
2023/09/17 06:11:57;;;;;;;6.75;4.18;;;;;;;17.26;75.21;101392.72;5037497;27;101345;-27
2023/09/17 06:14:22;;;;;;;7.97;4.47;;;;;;;17.23;75.66;101391.06;5037721;27;100848;-28
2023/09/17 06:16:48;;;;;;;7.00;3.85;;;;;;;17.22;76.23;101394.81;5056694;27;96559;-27
2023/09/17 06:19:13;;;;;;;6.93;4.50;;;;;;;17.17;75.87;101383.38;5056026;27;96855;-27
2023/09/17 06:21:38;;;;;;;7.38;4.05;;;;;;;17.17;76.10;101383.38;5055853;27;99375;-27
2023/09/17 06:24:04;;;;;;;8.77;4.43;;;;;;;17.19;76.69;101384.13;5056350;27;98294;-27
2023/09/17 06:26:30;;;;;;;9.40;4.63;;;;;;;17.16;76.49;101373.41;5055997;27;96443;-27
2023/09/17 06:28:55;;;;;;;6.70;4.65;;;;;;;17.06;76.59;101375.16;5055809;27;96838;-27
2023/09/17 06:31:21;;;;;;;7.65;4.40;;;;;;;17.03;77.62;101379.00;5055373;27;97908;-27
2023/09/17 06:33:47;;;;;;;6.70;3.97;;;;;;;16.98;77.44;101382.13;5037433;27;101051;-27
2023/09/17 06:36:12;;;;;;;6.90;4.32;;;;;;;16.95;77.79;101382.38;5056195;27;96529;-27
2023/09/17 06:38:37;;;;;;;6.55;4.13;;;;;;;16.81;78.01;101377.13;5055966;27;96804;-27
2023/09/17 06:41:03;;;;;;;6.10;3.97;;;;;;;16.80;78.47;101405.47;5055782;27;98031;-28
2023/09/17 06:43:29;;;;;;;8.38;4.65;;;;;;;16.73;79.09;101398.69;5055627;27;97347;-27
2023/09/17 06:45:55;;;;;;;5.97;3.75;;;;;;;16.70;80.18;101405.28;5037375;27;96857;-27
2023/09/17 06:48:20;;;;;;;6.65;3.97;;;;;;;16.70;81.74;101398.94;5056350;27;96773;-27
2023/09/17 06:50:45;;;;;;;6.40;3.78;;;;;;;16.64;81.20;101396.72;5055578;27;97940;-28
2023/09/17 06:53:11;;;;;;;6.95;4.45;;;;;;;16.64;80.86;101399.44;5055166;27;102071;-28
2023/09/17 06:55:36;;;;;;;8.82;4.78;;;;;;;16.59;83.17;101393.44;5055458;27;96689;-28
2023/09/17 06:58:02;;;;;;;6.53;3.90;;;;;;;16.63;84.14;101389.47;5055679;27;96835;-27
2023/09/17 07:00:27;;;;;;;8.85;4.80;;;;;;;16.56;82.48;101389.97;5055020;27;99227;-27
2023/09/17 07:02:52;;;;;;;10.35;3.88;;;;;;;16.55;83.81;101396.41;5055328;27;101071;-27
2023/09/17 07:05:18;;;;;;;5.43;3.90;;;;;;;16.49;84.03;101396.91;5055583;27;96454;-27
2023/09/17 07:07:43;;;;;;;8.73;4.40;;;;;;;16.50;84.62;101406.00;5055598;27;96824;-27
2023/09/17 07:10:08;;;;;;;7.20;4.10;;;;;;;16.41;85.65;101409.44;5055098;27;97330;-27
2023/09/17 07:12:38;;;;;;;10.02;4.65;;;;;;;16.41;86.19;101412.16;5055350;27;99682;-27
2023/09/17 07:15:10;;;;;;;7.05;4.00;;;;;;;16.37;84.94;101413.38;5037140;27;96764;-27
2023/09/17 07:17:35;;;;;;;;;;;;;;;16.35;87.27;101425.31;5056107;27;96567;-27
2023/09/17 07:20:01;;;;;;;6.57;4.03;;;;;;;16.32;85.55;101428.28;5054440;27;99531;-28
2023/09/17 07:22:26;;;;;;;6.25;3.80;;;;;;;16.32;86.14;101421.94;5054834;27;99204;-28
2023/09/17 07:24:56;;;;;;;7.00;4.38;;;;;;;16.28;87.56;101420.41;5055380;27;96466;-28
2023/09/17 07:27:22;;;;;;;7.45;3.75;;;;;;;16.35;85.95;101413.50;5055163;27;96810;-27
2023/09/17 07:29:48;;;;;;;7.20;4.32;;;;;;;16.37;87.18;101416.13;5036458;27;100816;-27
2023/09/17 07:32:13;;;;;;;8.88;4.72;;;;;;;16.40;88.11;101404.94;5036681;27;100785;-27
2023/09/17 07:34:39;;;;;;;9.00;4.28;;;;;;;16.46;85.36;101399.88;5054978;27;96597;-27
2023/09/17 07:37:05;;;;;;;5.22;3.25;;;;;;;16.45;86.50;101398.13;5055363;27;96878;-27
2023/09/17 07:39:30;;;;;;;6.15;4.13;;;;;;;16.43;87.25;101410.19;5036138;27;101319;-27
2023/09/17 07:41:56;;;;;;;6.63;3.35;;;;;;;16.38;88.05;101404.22;5054815;27;97251;-27
2023/09/17 07:44:21;;;;;;;5.63;3.60;;;;;;;16.40;88.29;101394.91;5053758;27;96936;-27
2023/09/17 07:46:47;;;;;;;6.60;3.85;;;;;;;16.44;87.14;101395.50;5054885;27;96718;-28
2023/09/17 07:49:12;;;;;;;7.25;4.40;;;;;;;16.49;87.11;101391.44;5054845;27;98100;-27
2023/09/17 07:51:38;;;;;;;11.85;4.78;;;;;;;16.52;86.92;101390.34;5054486;27;99105;-29
2023/09/17 07:54:03;;;;;;;6.57;4.10;;;;;;;16.47;87.61;101385.22;5054962;27;96500;-28
2023/09/17 07:56:29;;;;;;;8.52;4.47;;;;;;;16.47;88.64;101398.91;5054781;27;96823;-27
2023/09/17 07:58:54;;;;;;;6.28;4.05;;;;;;;16.49;87.61;101404.22;5054606;27;97916;-27
2023/09/17 08:01:19;;;;;;;7.55;4.68;;;;;;;16.47;88.15;101404.38;5054890;27;97108;-27
2023/09/17 08:03:45;;;;;;;6.53;4.25;;;;;;;16.43;88.76;101401.97;5054506;27;96723;-27
2023/09/17 08:06:11;;;;;;;8.50;4.32;;;;;;;16.46;88.84;101396.28;5054880;27;96880;-27
2023/09/17 08:08:36;;;;;;;6.53;4.22;;;;;;;16.48;87.84;101389.69;5035527;27;100839;-27
2023/09/17 08:11:03;;;;;;;6.88;4.22;;;;;;;16.54;88.30;101388.31;5054503;27;98079;-29
2023/09/17 08:13:29;;;;;;;7.13;4.50;;;;;;;16.56;88.77;101392.72;5054590;27;96464;-27
2023/09/17 08:15:55;;;;;;;5.82;4.07;;;;;;;16.60;88.67;101393.31;5054826;27;96759;-27
2023/09/17 08:18:20;;;;;;;8.73;4.53;;;;;;;16.61;89.37;101392.31;5035731;27;100834;-27
2023/09/17 08:20:46;;;;;;;8.23;4.30;;;;;;;16.59;89.58;101386.13;5054392;27;97809;-28
2023/09/17 08:23:11;;;;;;;6.35;3.88;;;;;;;16.57;88.40;101374.44;5056587;27;96532;-29
2023/09/17 08:25:37;;;;;;;8.32;4.85;;;;;;;16.55;88.63;101377.28;5058552;27;96810;-27
2023/09/17 08:28:02;;;;;;;9.07;4.57;;;;;;;16.60;87.80;101376.91;5057682;27;98952;-27
2023/09/17 08:30:28;;;;;;;7.10;3.95;;;;;;;16.52;90.68;101379.41;5057279;27;99348;-29
2023/09/17 08:32:54;;;;;;;10.02;4.70;;;;;;;16.48;88.66;101373.28;5039221;27;96593;-28
2023/09/17 08:35:19;;;;;;;6.75;4.10;;;;;;;16.57;89.62;101377.16;5039475;27;96850;-27
2023/09/17 08:37:45;;;;;;;7.18;4.60;;;;;;;16.57;89.28;101388.09;5057609;27;97181;-27
2023/09/17 08:40:17;;;;;;;7.88;4.82;;;;;;;16.53;89.18;101392.06;5057462;27;97793;-28
2023/09/17 08:42:43;;;;;;;10.43;4.53;;;;;;;16.50;89.98;101397.78;5039311;27;96665;-27
2023/09/17 08:45:10;;;;;;;8.63;4.68;;;;;;;16.46;89.36;101396.28;5039097;27;96960;-28
2023/09/17 08:47:39;;;;;;;8.98;4.85;;;;;;;16.53;90.19;101409.34;5039104;27;101433;-28
2023/09/17 08:50:09;;;;;;;8.45;4.82;;;;;;;16.56;90.73;101408.22;5040342;27;96685;-27
2023/09/17 08:52:40;;;;;;;8.48;5.20;;;;;;;16.57;89.53;101410.00;5057470;27;96640;-27
2023/09/17 08:55:08;;;;;;;7.68;4.60;;;;;;;16.60;90.58;101409.75;5039442;27;96729;-27
2023/09/17 08:57:37;;;;;;;7.35;4.15;;;;;;;16.64;90.32;101410.38;5056654;27;98013;-27
2023/09/17 09:00:08;;;;;;;6.82;4.35;;;;;;;16.63;89.25;101400.41;5038944;27;100857;-28
2023/09/17 09:02:40;;;;;;;7.32;4.63;;;;;;;16.66;90.67;101409.28;5057507;27;96712;-27
2023/09/17 09:05:07;;;;;;;9.15;4.68;;;;;;;16.67;90.01;101404.66;5039172;27;96829;-27
2023/09/17 09:07:34;;;;;;;9.15;4.32;;;;;;;16.69;90.96;101408.16;5038844;27;101526;-27
2023/09/17 09:10:01;;;;;;;7.47;4.28;;;;;;;16.68;89.02;101393.59;5057228;27;97354;-27
2023/09/17 09:12:27;;;;;;;7.70;4.40;;;;;;;16.74;90.01;101403.19;5038974;27;96651;-27
2023/09/17 09:14:53;;;;;;;9.93;5.05;;;;;;;16.74;90.80;101409.53;5039301;27;96705;-27
2023/09/17 09:17:19;;;;;;;11.23;5.10;;;;;;;16.74;90.11;101403.19;5056894;27;99510;-28
2023/09/17 09:19:45;;;;;;;8.90;4.85;;;;;;;16.77;90.23;101417.47;5056407;27;98699;-27
2023/09/17 09:22:10;;;;;;;8.38;4.80;;;;;;;16.77;89.11;101408.41;5038308;27;96576;-27
2023/09/17 09:24:47;;;;;;;7.25;4.40;;;;;;;16.82;89.42;101410.81;5057306;27;96830;-27
2023/09/17 09:27:12;;;;;;;7.68;4.43;;;;;;;16.81;88.77;101412.69;5038423;27;101112;-27
2023/09/17 09:29:42;;;;;;;8.25;4.88;;;;;;;16.84;90.16;101417.06;5056448;27;99106;-27
2023/09/17 09:32:09;;;;;;;8.18;4.88;;;;;;;16.80;90.46;101410.94;5056786;27;96675;-27
2023/09/17 09:34:38;;;;;;;8.88;4.78;;;;;;;16.84;90.21;101412.44;5038342;27;96491;-27
2023/09/17 09:37:08;;;;;;;9.32;5.82;;;;;;;16.84;89.16;101412.44;5038411;27;100760;-28
2023/09/17 09:39:37;;;;;;;9.02;4.93;;;;;;;16.86;89.60;101404.13;5056713;27;99551;-27
2023/09/17 09:42:08;;;;;;;8.18;4.78;;;;;;;16.84;89.28;101387.81;5038419;27;96599;-28
2023/09/17 09:44:35;;;;;;;8.05;4.80;;;;;;;16.87;88.82;101389.44;5037651;27;96954;-27
2023/09/17 09:47:05;;;;;;;7.78;4.38;;;;;;;16.86;90.13;101383.09;5037678;27;101580;-27
2023/09/17 09:49:44;;;;;;;8.63;4.28;;;;;;;16.89;89.08;101380.09;5056290;27;97318;-27
2023/09/17 09:52:14;;;;;;;8.02;4.78;;;;;;;16.98;89.63;101378.50;5038325;27;96648;-28
2023/09/17 09:54:41;;;;;;;8.13;4.78;;;;;;;16.98;89.52;101370.31;5038260;27;96960;-27
2023/09/17 09:57:07;;;;;;;9.88;5.25;;;;;;;16.97;89.84;101374.00;5037905;27;99348;-28
2023/09/17 09:59:36;;;;;;;8.80;4.72;;;;;;;17.03;88.82;101386.34;5037846;27;101279;-27
2023/09/17 10:02:03;;;;;;;8.63;4.90;;;;;;;16.93;89.50;101365.19;5056338;27;96538;-27
2023/09/17 10:04:28;;;;;;;8.68;5.35;;;;;;;17.06;89.70;101375.16;5056999;27;96747;-27
2023/09/17 10:06:55;;;;;;;7.50;4.10;;;;;;;17.01;89.95;101383.72;5056217;27;97443;-27
2023/09/17 10:09:23;;;;;;;9.27;4.53;;;;;;;17.05;89.66;101376.16;5037672;27;101165;-30
2023/09/17 10:11:48;;;;;;;9.18;4.78;;;;;;;17.08;88.66;101374.03;5037363;27;96585;-27
2023/09/17 10:14:14;;;;;;;7.93;4.55;;;;;;;17.08;88.65;101370.44;5056551;27;96728;-27
2023/09/17 10:16:40;;;;;;;7.97;4.72;;;;;;;17.12;89.40;101361.84;5055884;27;99023;-27
2023/09/17 10:19:07;;;;;;;9.38;4.97;;;;;;;17.12;88.22;101353.63;5037484;27;100804;-29
2023/09/17 10:21:39;;;;;;;10.75;4.40;;;;;;;17.17;88.91;101358.75;5037850;27;96637;-27
2023/09/17 10:24:05;;;;;;;;;;;;;;;17.16;88.96;101363.34;5038353;27;96682;-27
2023/09/17 10:26:34;;;;;;;7.55;4.10;;;;;;;17.14;88.57;101353.53;5055784;27;99400;-27
2023/09/17 10:29:00;;;;;;;7.05;4.53;;;;;;;17.13;88.36;101358.09;5037406;27;100740;-27
2023/09/17 10:31:26;;;;;;;8.93;5.00;;;;;;;17.16;89.46;101356.97;5038088;27;96563;-28
2023/09/17 10:33:53;;;;;;;7.93;5.07;;;;;;;17.14;89.91;101353.53;5037615;27;96895;-27
2023/09/17 10:36:18;;;;;;;8.40;4.75;;;;;;;17.20;88.44;101353.00;5036858;27;101013;-27
2023/09/17 10:38:46;;;;;;;9.75;5.60;;;;;;;17.23;88.70;101341.78;5037017;27;99335;-27
2023/09/17 10:41:12;;;;;;;13.52;6.07;;;;;;;17.27;88.81;101347.91;5037534;27;96642;-28
2023/09/17 10:43:39;;;;;;;10.82;6.05;;;;;;;17.27;89.06;101356.97;5037667;27;96854;-27
2023/09/17 10:46:06;;;;;;;11.45;6.10;;;;;;;17.31;88.28;101342.06;5036170;27;99348;-28
2023/09/17 10:48:32;;;;;;;12.27;7.10;;;;;;;17.33;88.86;101345.53;5037088;27;101180;-28
2023/09/17 10:50:59;;;;;;;9.63;5.75;;;;;;;17.39;88.00;101352.38;5037407;27;96595;-27
2023/09/17 10:53:28;;;;;;;22.95;8.82;;;;;;;17.35;88.55;101340.81;5037659;27;96840;-27
2023/09/17 10:56:03;;;;;;;17.35;9.57;;;;;;;17.43;88.57;101348.38;5037070;27;101142;-27
2023/09/17 10:58:43;;;;;;;22.83;11.90;;;;;;;17.41;88.84;101339.41;5036873;27;101099;-27
2023/09/17 11:01:12;;;;;;;28.58;14.10;;;;;;;17.42;89.00;101343.88;5035996;27;96828;-27
2023/09/17 11:03:41;;;;;;;33.58;16.58;;;;;;;17.44;88.55;101347.38;5036163;27;96893;-27
2023/09/17 11:06:15;;;;;;;35.80;14.48;;;;;;;17.41;90.01;101344.91;5053780;27;97387;-28
2023/09/17 11:08:43;;;;;;;29.70;13.50;;;;;;;17.36;89.45;101338.94;5036866;27;100899;-28
2023/09/17 11:11:12;;;;;;;18.50;9.32;;;;;;;17.44;88.56;101341.03;5036986;27;96677;-27
2023/09/17 11:13:37;;;;;;;13.20;6.75;;;;;;;17.48;90.41;101348.00;5037142;27;96883;-27
2023/09/17 11:16:02;;;;;;;12.98;6.40;;;;;;;17.48;89.42;101329.69;5055365;27;97431;-28
2023/09/17 11:18:28;;;;;;;11.48;5.95;;;;;;;17.62;88.70;101337.63;5055336;27;99141;-27
2023/09/17 11:21:06;;;;;;;14.95;6.97;;;;;;;17.64;89.47;101345.75;5055305;27;96601;-27